sensor_id;sensor_type;location;lat;lon;timestamp;P1;durP1;ratioP1;P2;durP2;ratioP2
12968;SDS011;6549;53.128;8.182;2023-03-23T00:00:53;12.88;;;11.20;;
12968;SDS011;6549;53.128;8.182;2023-03-23T00:03:54;15.18;;;12.02;;
12968;SDS011;6549;53.128;8.182;2023-03-23T00:09:57;13.98;;;11.25;;
12968;SDS011;6549;53.128;8.182;2023-03-23T00:12:57;16.02;;;11.43;;
12968;SDS011;6549;53.128;8.182;2023-03-23T00:16:02;13.05;;;10.77;;
12968;SDS011;6549;53.128;8.182;2023-03-23T00:19:06;12.20;;;10.25;;
12968;SDS011;6549;53.128;8.182;2023-03-23T00:22:13;15.43;;;11.63;;
12968;SDS011;6549;53.128;8.182;2023-03-23T00:25:14;14.30;;;11.05;;
12968;SDS011;6549;53.128;8.182;2023-03-23T00:28:16;13.63;;;10.70;;
12968;SDS011;6549;53.128;8.182;2023-03-23T00:31:18;14.77;;;11.05;;
12968;SDS011;6549;53.128;8.182;2023-03-23T00:34:20;14.10;;;11.13;;
12968;SDS011;6549;53.128;8.182;2023-03-23T00:37:21;12.90;;;10.63;;
12968;SDS011;6549;53.128;8.182;2023-03-23T00:40:22;13.68;;;11.02;;
12968;SDS011;6549;53.128;8.182;2023-03-23T00:43:23;12.95;;;11.23;;
12968;SDS011;6549;53.128;8.182;2023-03-23T00:46:24;14.90;;;10.80;;
12968;SDS011;6549;53.128;8.182;2023-03-23T00:49:25;14.07;;;11.68;;
12968;SDS011;6549;53.128;8.182;2023-03-23T00:52:25;14.00;;;11.43;;
12968;SDS011;6549;53.128;8.182;2023-03-23T00:55:26;13.80;;;10.55;;
12968;SDS011;6549;53.128;8.182;2023-03-23T00:58:26;15.77;;;11.27;;
12968;SDS011;6549;53.128;8.182;2023-03-23T01:01:26;14.77;;;11.40;;
12968;SDS011;6549;53.128;8.182;2023-03-23T01:04:27;13.68;;;11.07;;
12968;SDS011;6549;53.128;8.182;2023-03-23T01:07:28;14.27;;;10.88;;
12968;SDS011;6549;53.128;8.182;2023-03-23T01:13:32;14.30;;;9.98;;
12968;SDS011;6549;53.128;8.182;2023-03-23T01:16:32;12.82;;;10.98;;
12968;SDS011;6549;53.128;8.182;2023-03-23T01:19:33;14.52;;;10.52;;
12968;SDS011;6549;53.128;8.182;2023-03-23T01:22:33;12.07;;;10.20;;
12968;SDS011;6549;53.128;8.182;2023-03-23T01:25:35;16.20;;;10.57;;
12968;SDS011;6549;53.128;8.182;2023-03-23T01:28:36;12.52;;;10.57;;
12968;SDS011;6549;53.128;8.182;2023-03-23T01:31:37;13.98;;;9.80;;
12968;SDS011;6549;53.128;8.182;2023-03-23T01:34:37;13.60;;;9.88;;
12968;SDS011;6549;53.128;8.182;2023-03-23T01:37:38;14.52;;;9.80;;
12968;SDS011;6549;53.128;8.182;2023-03-23T01:40:38;15.13;;;10.02;;
12968;SDS011;6549;53.128;8.182;2023-03-23T01:43:54;13.98;;;9.40;;
12968;SDS011;6549;53.128;8.182;2023-03-23T01:47:06;14.75;;;9.50;;
12968;SDS011;6549;53.128;8.182;2023-03-23T01:50:06;11.95;;;9.25;;
12968;SDS011;6549;53.128;8.182;2023-03-23T01:53:08;12.02;;;9.20;;
12968;SDS011;6549;53.128;8.182;2023-03-23T01:56:10;13.00;;;8.75;;
12968;SDS011;6549;53.128;8.182;2023-03-23T01:59:14;12.52;;;8.88;;
12968;SDS011;6549;53.128;8.182;2023-03-23T02:02:15;14.63;;;9.43;;
12968;SDS011;6549;53.128;8.182;2023-03-23T02:05:28;10.88;;;8.38;;
12968;SDS011;6549;53.128;8.182;2023-03-23T02:08:33;12.05;;;8.85;;
12968;SDS011;6549;53.128;8.182;2023-03-23T02:11:34;12.25;;;7.80;;
12968;SDS011;6549;53.128;8.182;2023-03-23T02:14:34;11.50;;;8.20;;
12968;SDS011;6549;53.128;8.182;2023-03-23T02:24:10;10.23;;;7.15;;
12968;SDS011;6549;53.128;8.182;2023-03-23T02:30:58;12.73;;;7.45;;
12968;SDS011;6549;53.128;8.182;2023-03-23T02:34:29;11.48;;;7.80;;
12968;SDS011;6549;53.128;8.182;2023-03-23T02:37:37;11.45;;;7.00;;
12968;SDS011;6549;53.128;8.182;2023-03-23T02:40:46;10.07;;;6.72;;
12968;SDS011;6549;53.128;8.182;2023-03-23T02:43:49;10.77;;;6.68;;
12968;SDS011;6549;53.128;8.182;2023-03-23T02:46:50;8.82;;;6.15;;
12968;SDS011;6549;53.128;8.182;2023-03-23T02:52:54;9.50;;;6.38;;
12968;SDS011;6549;53.128;8.182;2023-03-23T02:55:58;8.02;;;5.97;;
12968;SDS011;6549;53.128;8.182;2023-03-23T02:59:02;9.70;;;6.30;;
12968;SDS011;6549;53.128;8.182;2023-03-23T03:05:21;9.57;;;6.07;;
12968;SDS011;6549;53.128;8.182;2023-03-23T03:12:41;9.37;;;6.03;;
12968;SDS011;6549;53.128;8.182;2023-03-23T03:15:55;9.02;;;6.20;;
12968;SDS011;6549;53.128;8.182;2023-03-23T03:19:12;10.18;;;5.70;;
12968;SDS011;6549;53.128;8.182;2023-03-23T03:22:25;8.50;;;5.65;;
12968;SDS011;6549;53.128;8.182;2023-03-23T03:25:28;9.07;;;5.65;;
12968;SDS011;6549;53.128;8.182;2023-03-23T03:28:29;10.30;;;5.53;;
12968;SDS011;6549;53.128;8.182;2023-03-23T03:31:36;11.10;;;5.60;;
12968;SDS011;6549;53.128;8.182;2023-03-23T03:34:39;6.97;;;5.03;;
12968;SDS011;6549;53.128;8.182;2023-03-23T03:37:39;7.85;;;5.22;;
12968;SDS011;6549;53.128;8.182;2023-03-23T03:40:40;9.60;;;5.65;;
12968;SDS011;6549;53.128;8.182;2023-03-23T03:43:40;10.38;;;5.30;;
12968;SDS011;6549;53.128;8.182;2023-03-23T03:46:41;10.38;;;5.55;;
12968;SDS011;6549;53.128;8.182;2023-03-23T03:49:41;8.13;;;5.60;;
12968;SDS011;6549;53.128;8.182;2023-03-23T03:52:42;8.75;;;4.97;;
12968;SDS011;6549;53.128;8.182;2023-03-23T03:55:42;9.05;;;5.47;;
12968;SDS011;6549;53.128;8.182;2023-03-23T03:58:45;10.05;;;5.65;;
12968;SDS011;6549;53.128;8.182;2023-03-23T04:01:45;9.45;;;5.65;;
12968;SDS011;6549;53.128;8.182;2023-03-23T04:04:46;8.73;;;5.78;;
12968;SDS011;6549;53.128;8.182;2023-03-23T04:07:47;9.68;;;5.63;;
12968;SDS011;6549;53.128;8.182;2023-03-23T04:10:51;9.73;;;6.07;;
12968;SDS011;6549;53.128;8.182;2023-03-23T04:13:52;10.30;;;5.97;;
12968;SDS011;6549;53.128;8.182;2023-03-23T04:16:52;8.80;;;6.68;;
12968;SDS011;6549;53.128;8.182;2023-03-23T04:19:56;10.55;;;6.97;;
12968;SDS011;6549;53.128;8.182;2023-03-23T04:22:57;10.10;;;6.60;;
12968;SDS011;6549;53.128;8.182;2023-03-23T04:25:57;12.35;;;6.75;;
12968;SDS011;6549;53.128;8.182;2023-03-23T04:28:58;9.55;;;6.50;;
12968;SDS011;6549;53.128;8.182;2023-03-23T04:32:00;12.25;;;6.97;;
12968;SDS011;6549;53.128;8.182;2023-03-23T04:35:01;10.38;;;6.90;;
12968;SDS011;6549;53.128;8.182;2023-03-23T04:38:02;12.93;;;6.88;;
12968;SDS011;6549;53.128;8.182;2023-03-23T04:41:02;11.25;;;7.07;;
12968;SDS011;6549;53.128;8.182;2023-03-23T04:44:03;10.88;;;6.70;;
12968;SDS011;6549;53.128;8.182;2023-03-23T04:47:05;11.60;;;6.30;;
12968;SDS011;6549;53.128;8.182;2023-03-23T04:50:10;13.80;;;6.68;;
12968;SDS011;6549;53.128;8.182;2023-03-23T04:53:14;9.90;;;6.55;;
12968;SDS011;6549;53.128;8.182;2023-03-23T04:56:17;9.85;;;6.60;;
12968;SDS011;6549;53.128;8.182;2023-03-23T04:59:18;10.82;;;6.18;;
12968;SDS011;6549;53.128;8.182;2023-03-23T05:02:18;10.25;;;6.85;;
12968;SDS011;6549;53.128;8.182;2023-03-23T05:05:19;8.57;;;6.03;;
12968;SDS011;6549;53.128;8.182;2023-03-23T05:08:21;9.43;;;6.70;;
12968;SDS011;6549;53.128;8.182;2023-03-23T05:11:22;9.30;;;6.35;;
12968;SDS011;6549;53.128;8.182;2023-03-23T05:14:23;9.40;;;6.60;;
12968;SDS011;6549;53.128;8.182;2023-03-23T05:17:24;10.40;;;6.88;;
12968;SDS011;6549;53.128;8.182;2023-03-23T05:20:24;11.70;;;6.13;;
12968;SDS011;6549;53.128;8.182;2023-03-23T05:23:25;9.68;;;6.32;;
12968;SDS011;6549;53.128;8.182;2023-03-23T05:26:25;9.50;;;6.55;;
12968;SDS011;6549;53.128;8.182;2023-03-23T05:29:28;10.52;;;6.95;;
12968;SDS011;6549;53.128;8.182;2023-03-23T05:32:30;8.65;;;6.25;;
12968;SDS011;6549;53.128;8.182;2023-03-23T05:35:31;9.95;;;5.88;;
12968;SDS011;6549;53.128;8.182;2023-03-23T05:38:31;8.60;;;6.55;;
12968;SDS011;6549;53.128;8.182;2023-03-23T05:41:31;7.75;;;5.88;;
12968;SDS011;6549;53.128;8.182;2023-03-23T05:44:33;7.88;;;6.20;;
12968;SDS011;6549;53.128;8.182;2023-03-23T05:47:33;8.32;;;5.97;;
12968;SDS011;6549;53.128;8.182;2023-03-23T05:50:34;8.57;;;6.05;;
12968;SDS011;6549;53.128;8.182;2023-03-23T05:53:34;8.45;;;5.40;;
12968;SDS011;6549;53.128;8.182;2023-03-23T05:56:35;8.43;;;5.80;;
12968;SDS011;6549;53.128;8.182;2023-03-23T05:59:36;10.30;;;6.63;;
12968;SDS011;6549;53.128;8.182;2023-03-23T06:02:36;9.90;;;6.28;;
12968;SDS011;6549;53.128;8.182;2023-03-23T06:05:41;10.00;;;6.65;;
12968;SDS011;6549;53.128;8.182;2023-03-23T06:08:45;9.73;;;6.65;;
12968;SDS011;6549;53.128;8.182;2023-03-23T06:11:45;10.40;;;6.78;;
12968;SDS011;6549;53.128;8.182;2023-03-23T06:14:47;8.60;;;6.63;;
12968;SDS011;6549;53.128;8.182;2023-03-23T06:17:48;10.60;;;7.07;;
12968;SDS011;6549;53.128;8.182;2023-03-23T06:20:50;9.03;;;6.17;;
12968;SDS011;6549;53.128;8.182;2023-03-23T06:23:51;13.43;;;6.57;;
12968;SDS011;6549;53.128;8.182;2023-03-23T06:26:51;9.48;;;6.15;;
12968;SDS011;6549;53.128;8.182;2023-03-23T06:29:51;8.75;;;5.95;;
12968;SDS011;6549;53.128;8.182;2023-03-23T06:32:52;10.02;;;5.82;;
12968;SDS011;6549;53.128;8.182;2023-03-23T06:35:53;8.45;;;5.70;;
12968;SDS011;6549;53.128;8.182;2023-03-23T06:38:54;9.35;;;5.75;;
12968;SDS011;6549;53.128;8.182;2023-03-23T06:41:56;9.45;;;5.55;;
12968;SDS011;6549;53.128;8.182;2023-03-23T06:44:57;11.13;;;6.43;;
12968;SDS011;6549;53.128;8.182;2023-03-23T06:47:57;8.45;;;5.32;;
12968;SDS011;6549;53.128;8.182;2023-03-23T06:50:57;8.60;;;5.05;;
12968;SDS011;6549;53.128;8.182;2023-03-23T06:53:58;7.30;;;4.38;;
12968;SDS011;6549;53.128;8.182;2023-03-23T06:56:58;7.20;;;3.95;;
12968;SDS011;6549;53.128;8.182;2023-03-23T06:59:58;9.85;;;3.30;;
12968;SDS011;6549;53.128;8.182;2023-03-23T07:02:59;6.95;;;3.00;;
12968;SDS011;6549;53.128;8.182;2023-03-23T07:05:59;7.82;;;2.47;;
12968;SDS011;6549;53.128;8.182;2023-03-23T07:09:00;6.28;;;2.20;;
12968;SDS011;6549;53.128;8.182;2023-03-23T07:12:00;5.25;;;2.35;;
12968;SDS011;6549;53.128;8.182;2023-03-23T07:15:01;5.60;;;1.70;;
12968;SDS011;6549;53.128;8.182;2023-03-23T07:18:02;7.57;;;2.28;;
12968;SDS011;6549;53.128;8.182;2023-03-23T07:21:03;7.22;;;2.20;;
12968;SDS011;6549;53.128;8.182;2023-03-23T07:24:04;7.47;;;2.20;;
12968;SDS011;6549;53.128;8.182;2023-03-23T07:27:04;7.53;;;2.22;;
12968;SDS011;6549;53.128;8.182;2023-03-23T07:30:05;7.78;;;1.98;;
12968;SDS011;6549;53.128;8.182;2023-03-23T07:33:06;6.25;;;1.75;;
12968;SDS011;6549;53.128;8.182;2023-03-23T07:36:08;5.57;;;1.85;;
12968;SDS011;6549;53.128;8.182;2023-03-23T07:39:09;8.10;;;2.00;;
12968;SDS011;6549;53.128;8.182;2023-03-23T07:42:09;4.88;;;2.00;;
12968;SDS011;6549;53.128;8.182;2023-03-23T07:45:11;4.65;;;2.10;;
12968;SDS011;6549;53.128;8.182;2023-03-23T07:51:13;6.38;;;2.30;;
12968;SDS011;6549;53.128;8.182;2023-03-23T07:54:16;7.60;;;2.53;;
12968;SDS011;6549;53.128;8.182;2023-03-23T07:57:16;5.68;;;2.42;;
12968;SDS011;6549;53.128;8.182;2023-03-23T08:00:17;7.03;;;3.08;;
12968;SDS011;6549;53.128;8.182;2023-03-23T08:03:19;7.07;;;2.75;;
12968;SDS011;6549;53.128;8.182;2023-03-23T08:06:20;7.60;;;2.72;;
12968;SDS011;6549;53.128;8.182;2023-03-23T08:09:21;6.15;;;2.55;;
12968;SDS011;6549;53.128;8.182;2023-03-23T08:12:21;9.40;;;2.80;;
12968;SDS011;6549;53.128;8.182;2023-03-23T08:15:22;13.75;;;3.20;;
12968;SDS011;6549;53.128;8.182;2023-03-23T08:18:23;8.60;;;3.00;;
12968;SDS011;6549;53.128;8.182;2023-03-23T08:21:24;9.15;;;2.97;;
12968;SDS011;6549;53.128;8.182;2023-03-23T08:24:26;10.20;;;2.67;;
12968;SDS011;6549;53.128;8.182;2023-03-23T08:27:26;10.50;;;3.15;;
12968;SDS011;6549;53.128;8.182;2023-03-23T08:30:27;8.77;;;3.15;;
12968;SDS011;6549;53.128;8.182;2023-03-23T08:33:30;12.75;;;2.85;;
12968;SDS011;6549;53.128;8.182;2023-03-23T08:36:32;9.93;;;2.53;;
12968;SDS011;6549;53.128;8.182;2023-03-23T08:39:33;8.45;;;2.58;;
12968;SDS011;6549;53.128;8.182;2023-03-23T08:42:33;10.43;;;2.80;;
12968;SDS011;6549;53.128;8.182;2023-03-23T08:45:34;10.90;;;2.90;;
12968;SDS011;6549;53.128;8.182;2023-03-23T08:48:35;13.27;;;2.70;;
12968;SDS011;6549;53.128;8.182;2023-03-23T08:51:35;13.65;;;3.08;;
12968;SDS011;6549;53.128;8.182;2023-03-23T08:54:35;10.98;;;3.03;;
12968;SDS011;6549;53.128;8.182;2023-03-23T08:57:36;11.73;;;2.50;;
12968;SDS011;6549;53.128;8.182;2023-03-23T09:00:37;17.98;;;3.60;;
12968;SDS011;6549;53.128;8.182;2023-03-23T09:03:37;11.13;;;3.03;;
12968;SDS011;6549;53.128;8.182;2023-03-23T09:06:39;15.82;;;3.38;;
12968;SDS011;6549;53.128;8.182;2023-03-23T09:09:39;12.43;;;2.67;;
12968;SDS011;6549;53.128;8.182;2023-03-23T09:12:41;14.95;;;4.20;;
12968;SDS011;6549;53.128;8.182;2023-03-23T09:15:42;15.93;;;2.93;;
12968;SDS011;6549;53.128;8.182;2023-03-23T09:18:43;15.15;;;3.10;;
12968;SDS011;6549;53.128;8.182;2023-03-23T09:21:44;9.30;;;3.08;;
12968;SDS011;6549;53.128;8.182;2023-03-23T09:24:45;7.78;;;3.42;;
12968;SDS011;6549;53.128;8.182;2023-03-23T09:27:48;11.50;;;3.15;;
12968;SDS011;6549;53.128;8.182;2023-03-23T09:30:54;10.20;;;3.15;;
12968;SDS011;6549;53.128;8.182;2023-03-23T09:33:57;8.52;;;3.00;;
12968;SDS011;6549;53.128;8.182;2023-03-23T09:36:58;9.63;;;3.80;;
12968;SDS011;6549;53.128;8.182;2023-03-23T09:39:59;10.48;;;3.53;;
12968;SDS011;6549;53.128;8.182;2023-03-23T09:46:22;7.25;;;3.08;;
12968;SDS011;6549;53.128;8.182;2023-03-23T09:49:42;10.10;;;3.38;;
12968;SDS011;6549;53.128;8.182;2023-03-23T09:56:11;11.05;;;3.50;;
12968;SDS011;6549;53.128;8.182;2023-03-23T09:59:16;12.00;;;3.72;;
12968;SDS011;6549;53.128;8.182;2023-03-23T10:02:27;8.55;;;3.10;;
12968;SDS011;6549;53.128;8.182;2023-03-23T10:05:37;12.35;;;3.67;;
12968;SDS011;6549;53.128;8.182;2023-03-23T10:08:59;10.60;;;3.25;;
12968;SDS011;6549;53.128;8.182;2023-03-23T10:15:27;12.60;;;3.40;;
12968;SDS011;6549;53.128;8.182;2023-03-23T10:18:40;14.50;;;3.28;;
12968;SDS011;6549;53.128;8.182;2023-03-23T10:21:45;11.40;;;3.15;;
12968;SDS011;6549;53.128;8.182;2023-03-23T10:24:57;16.92;;;3.30;;
12968;SDS011;6549;53.128;8.182;2023-03-23T10:28:11;11.63;;;3.45;;
12968;SDS011;6549;53.128;8.182;2023-03-23T10:31:18;13.15;;;3.40;;
12968;SDS011;6549;53.128;8.182;2023-03-23T10:34:34;13.68;;;3.55;;
12968;SDS011;6549;53.128;8.182;2023-03-23T10:37:42;12.98;;;3.97;;
12968;SDS011;6549;53.128;8.182;2023-03-23T10:40:54;11.88;;;3.58;;
12968;SDS011;6549;53.128;8.182;2023-03-23T10:47:04;13.00;;;4.15;;
12968;SDS011;6549;53.128;8.182;2023-03-23T10:50:06;14.18;;;4.22;;
12968;SDS011;6549;53.128;8.182;2023-03-23T10:53:21;11.57;;;4.70;;
12968;SDS011;6549;53.128;8.182;2023-03-23T10:56:26;9.48;;;4.05;;
12968;SDS011;6549;53.128;8.182;2023-03-23T10:59:28;10.15;;;4.00;;
12968;SDS011;6549;53.128;8.182;2023-03-23T11:02:37;14.50;;;4.22;;
12968;SDS011;6549;53.128;8.182;2023-03-23T11:05:43;12.57;;;3.97;;
12968;SDS011;6549;53.128;8.182;2023-03-23T11:09:33;8.77;;;3.75;;
12968;SDS011;6549;53.128;8.182;2023-03-23T11:12:17;13.05;;;4.68;;
12968;SDS011;6549;53.128;8.182;2023-03-23T11:21:37;12.10;;;4.10;;
12968;SDS011;6549;53.128;8.182;2023-03-23T11:24:43;11.52;;;4.03;;
12968;SDS011;6549;53.128;8.182;2023-03-23T11:27:45;8.30;;;3.33;;
12968;SDS011;6549;53.128;8.182;2023-03-23T11:30:46;9.20;;;3.55;;
12968;SDS011;6549;53.128;8.182;2023-03-23T11:33:51;13.20;;;3.45;;
12968;SDS011;6549;53.128;8.182;2023-03-23T11:36:57;11.32;;;3.72;;
12968;SDS011;6549;53.128;8.182;2023-03-23T11:40:02;5.60;;;2.80;;
12968;SDS011;6549;53.128;8.182;2023-03-23T11:43:12;8.35;;;2.83;;
12968;SDS011;6549;53.128;8.182;2023-03-23T11:46:18;7.45;;;2.28;;
12968;SDS011;6549;53.128;8.182;2023-03-23T11:49:40;7.57;;;2.65;;
12968;SDS011;6549;53.128;8.182;2023-03-23T11:56:19;9.20;;;3.22;;
12968;SDS011;6549;53.128;8.182;2023-03-23T11:59:33;10.63;;;2.60;;
12968;SDS011;6549;53.128;8.182;2023-03-23T12:05:48;7.57;;;2.50;;
12968;SDS011;6549;53.128;8.182;2023-03-23T12:09:03;6.70;;;2.40;;
12968;SDS011;6549;53.128;8.182;2023-03-23T12:15:19;5.72;;;2.30;;
12968;SDS011;6549;53.128;8.182;2023-03-23T12:18:24;7.55;;;2.10;;
12968;SDS011;6549;53.128;8.182;2023-03-23T12:31:41;5.90;;;2.40;;
12968;SDS011;6549;53.128;8.182;2023-03-23T12:35:03;5.72;;;2.22;;
12968;SDS011;6549;53.128;8.182;2023-03-23T12:41:40;8.98;;;2.40;;
12968;SDS011;6549;53.128;8.182;2023-03-23T12:45:13;6.97;;;2.13;;
12968;SDS011;6549;53.128;8.182;2023-03-23T12:49:05;7.88;;;2.15;;
12968;SDS011;6549;53.128;8.182;2023-03-23T12:55:23;7.18;;;2.78;;
12968;SDS011;6549;53.128;8.182;2023-03-23T12:58:34;8.48;;;2.38;;
12968;SDS011;6549;53.128;8.182;2023-03-23T13:01:42;8.43;;;2.85;;
12968;SDS011;6549;53.128;8.182;2023-03-23T13:04:47;7.00;;;2.30;;
12968;SDS011;6549;53.128;8.182;2023-03-23T13:07:57;6.13;;;2.17;;
12968;SDS011;6549;53.128;8.182;2023-03-23T13:11:20;6.65;;;1.95;;
12968;SDS011;6549;53.128;8.182;2023-03-23T13:17:55;6.17;;;2.00;;
12968;SDS011;6549;53.128;8.182;2023-03-23T13:24:15;9.05;;;2.20;;
12968;SDS011;6549;53.128;8.182;2023-03-23T13:27:27;6.15;;;1.80;;
12968;SDS011;6549;53.128;8.182;2023-03-23T13:30:29;5.63;;;1.88;;
12968;SDS011;6549;53.128;8.182;2023-03-23T13:33:31;7.13;;;2.00;;
12968;SDS011;6549;53.128;8.182;2023-03-23T13:36:43;7.70;;;2.00;;
12968;SDS011;6549;53.128;8.182;2023-03-23T13:42:57;6.93;;;1.88;;
12968;SDS011;6549;53.128;8.182;2023-03-23T13:46:06;7.10;;;2.05;;
12968;SDS011;6549;53.128;8.182;2023-03-23T13:52:23;7.38;;;1.83;;
12968;SDS011;6549;53.128;8.182;2023-03-23T13:56:04;4.95;;;1.70;;
12968;SDS011;6549;53.128;8.182;2023-03-23T13:59:12;7.47;;;2.05;;
12968;SDS011;6549;53.128;8.182;2023-03-23T14:02:27;5.97;;;1.88;;
12968;SDS011;6549;53.128;8.182;2023-03-23T14:05:34;8.32;;;2.30;;
12968;SDS011;6549;53.128;8.182;2023-03-23T14:08:38;7.57;;;2.10;;
12968;SDS011;6549;53.128;8.182;2023-03-23T14:11:54;6.00;;;1.80;;
12968;SDS011;6549;53.128;8.182;2023-03-23T14:14:58;7.18;;;2.10;;
12968;SDS011;6549;53.128;8.182;2023-03-23T14:18:02;8.77;;;2.28;;
12968;SDS011;6549;53.128;8.182;2023-03-23T14:21:04;9.27;;;2.60;;
12968;SDS011;6549;53.128;8.182;2023-03-23T14:24:09;6.28;;;1.88;;
12968;SDS011;6549;53.128;8.182;2023-03-23T14:27:15;7.80;;;2.22;;
12968;SDS011;6549;53.128;8.182;2023-03-23T14:30:18;8.15;;;2.22;;
12968;SDS011;6549;53.128;8.182;2023-03-23T14:33:20;8.13;;;2.35;;
12968;SDS011;6549;53.128;8.182;2023-03-23T14:36:26;10.25;;;2.10;;
12968;SDS011;6549;53.128;8.182;2023-03-23T14:39:29;9.70;;;1.98;;
12968;SDS011;6549;53.128;8.182;2023-03-23T14:42:34;8.18;;;2.10;;
12968;SDS011;6549;53.128;8.182;2023-03-23T14:45:36;9.10;;;2.10;;
12968;SDS011;6549;53.128;8.182;2023-03-23T14:48:37;7.30;;;1.92;;
12968;SDS011;6549;53.128;8.182;2023-03-23T14:51:45;6.60;;;1.77;;
12968;SDS011;6549;53.128;8.182;2023-03-23T14:54:47;8.50;;;2.20;;
12968;SDS011;6549;53.128;8.182;2023-03-23T14:57:48;7.72;;;1.90;;
12968;SDS011;6549;53.128;8.182;2023-03-23T15:03:54;9.85;;;2.35;;
12968;SDS011;6549;53.128;8.182;2023-03-23T15:07:00;6.15;;;2.00;;
12968;SDS011;6549;53.128;8.182;2023-03-23T15:10:06;8.90;;;2.33;;
12968;SDS011;6549;53.128;8.182;2023-03-23T15:13:11;8.15;;;2.00;;
12968;SDS011;6549;53.128;8.182;2023-03-23T15:16:20;9.02;;;2.00;;
12968;SDS011;6549;53.128;8.182;2023-03-23T15:19:25;8.25;;;1.85;;
12968;SDS011;6549;53.128;8.182;2023-03-23T15:22:28;5.63;;;1.90;;
12968;SDS011;6549;53.128;8.182;2023-03-23T15:28:32;8.90;;;2.25;;
12968;SDS011;6549;53.128;8.182;2023-03-23T15:31:33;7.80;;;2.20;;
12968;SDS011;6549;53.128;8.182;2023-03-23T15:34:38;6.28;;;1.63;;
12968;SDS011;6549;53.128;8.182;2023-03-23T15:37:44;6.65;;;1.75;;
12968;SDS011;6549;53.128;8.182;2023-03-23T15:40:48;8.90;;;2.15;;
12968;SDS011;6549;53.128;8.182;2023-03-23T15:43:51;9.95;;;2.35;;
12968;SDS011;6549;53.128;8.182;2023-03-23T15:46:55;7.40;;;2.10;;
12968;SDS011;6549;53.128;8.182;2023-03-23T15:50:13;4.80;;;1.90;;
12968;SDS011;6549;53.128;8.182;2023-03-23T15:56:27;7.38;;;2.03;;
12968;SDS011;6549;53.128;8.182;2023-03-23T15:59:29;8.77;;;2.10;;
12968;SDS011;6549;53.128;8.182;2023-03-23T16:02:29;6.95;;;1.95;;
12968;SDS011;6549;53.128;8.182;2023-03-23T16:05:30;9.27;;;2.70;;
12968;SDS011;6549;53.128;8.182;2023-03-23T16:08:31;10.27;;;2.10;;
12968;SDS011;6549;53.128;8.182;2023-03-23T16:11:32;7.88;;;2.17;;
12968;SDS011;6549;53.128;8.182;2023-03-23T16:14:32;9.43;;;2.33;;
12968;SDS011;6549;53.128;8.182;2023-03-23T16:17:33;8.73;;;1.90;;
12968;SDS011;6549;53.128;8.182;2023-03-23T16:20:33;7.45;;;1.85;;
12968;SDS011;6549;53.128;8.182;2023-03-23T16:23:33;7.95;;;2.00;;
12968;SDS011;6549;53.128;8.182;2023-03-23T16:26:34;7.72;;;2.00;;
12968;SDS011;6549;53.128;8.182;2023-03-23T16:29:36;9.32;;;2.10;;
12968;SDS011;6549;53.128;8.182;2023-03-23T16:32:36;6.95;;;2.00;;
12968;SDS011;6549;53.128;8.182;2023-03-23T16:35:37;9.55;;;2.25;;
12968;SDS011;6549;53.128;8.182;2023-03-23T16:38:37;7.68;;;2.40;;
12968;SDS011;6549;53.128;8.182;2023-03-23T16:41:38;8.40;;;2.25;;
12968;SDS011;6549;53.128;8.182;2023-03-23T16:44:40;6.20;;;2.08;;
12968;SDS011;6549;53.128;8.182;2023-03-23T16:47:40;6.97;;;2.13;;
12968;SDS011;6549;53.128;8.182;2023-03-23T16:50:42;7.68;;;2.15;;
12968;SDS011;6549;53.128;8.182;2023-03-23T16:53:43;9.63;;;2.30;;
12968;SDS011;6549;53.128;8.182;2023-03-23T16:56:43;6.32;;;1.90;;
12968;SDS011;6549;53.128;8.182;2023-03-23T16:59:45;10.45;;;2.03;;
12968;SDS011;6549;53.128;8.182;2023-03-23T17:02:46;6.88;;;2.10;;
12968;SDS011;6549;53.128;8.182;2023-03-23T17:05:50;8.07;;;2.22;;
12968;SDS011;6549;53.128;8.182;2023-03-23T17:08:51;8.23;;;2.53;;
12968;SDS011;6549;53.128;8.182;2023-03-23T17:11:51;8.80;;;2.03;;
12968;SDS011;6549;53.128;8.182;2023-03-23T17:14:52;7.90;;;2.08;;
12968;SDS011;6549;53.128;8.182;2023-03-23T17:17:53;9.50;;;2.40;;
12968;SDS011;6549;53.128;8.182;2023-03-23T17:20:54;9.23;;;2.78;;
12968;SDS011;6549;53.128;8.182;2023-03-23T17:23:54;6.70;;;2.40;;
12968;SDS011;6549;53.128;8.182;2023-03-23T17:26:55;7.82;;;2.47;;
12968;SDS011;6549;53.128;8.182;2023-03-23T17:29:55;8.90;;;2.13;;
12968;SDS011;6549;53.128;8.182;2023-03-23T17:32:56;7.57;;;2.00;;
12968;SDS011;6549;53.128;8.182;2023-03-23T17:35:56;8.60;;;3.13;;
12968;SDS011;6549;53.128;8.182;2023-03-23T17:38:56;9.30;;;3.85;;
12968;SDS011;6549;53.128;8.182;2023-03-23T17:41:57;9.15;;;3.40;;
12968;SDS011;6549;53.128;8.182;2023-03-23T17:44:58;9.10;;;3.00;;
12968;SDS011;6549;53.128;8.182;2023-03-23T17:47:58;12.85;;;5.82;;
12968;SDS011;6549;53.128;8.182;2023-03-23T17:50:59;16.65;;;8.07;;
12968;SDS011;6549;53.128;8.182;2023-03-23T17:54:01;14.68;;;4.47;;
12968;SDS011;6549;53.128;8.182;2023-03-23T17:57:01;8.60;;;3.53;;
12968;SDS011;6549;53.128;8.182;2023-03-23T18:00:03;11.50;;;2.92;;
12968;SDS011;6549;53.128;8.182;2023-03-23T18:03:08;9.25;;;3.53;;
12968;SDS011;6549;53.128;8.182;2023-03-23T18:06:08;7.20;;;2.95;;
12968;SDS011;6549;53.128;8.182;2023-03-23T18:09:09;8.18;;;2.95;;
12968;SDS011;6549;53.128;8.182;2023-03-23T18:12:09;7.40;;;2.65;;
12968;SDS011;6549;53.128;8.182;2023-03-23T18:15:10;5.80;;;2.55;;
12968;SDS011;6549;53.128;8.182;2023-03-23T18:18:11;6.80;;;2.40;;
12968;SDS011;6549;53.128;8.182;2023-03-23T18:21:11;7.65;;;3.00;;
12968;SDS011;6549;53.128;8.182;2023-03-23T18:24:12;12.05;;;2.80;;
12968;SDS011;6549;53.128;8.182;2023-03-23T18:27:13;6.13;;;2.60;;
12968;SDS011;6549;53.128;8.182;2023-03-23T18:30:13;7.80;;;3.50;;
12968;SDS011;6549;53.128;8.182;2023-03-23T18:33:14;6.28;;;3.15;;
12968;SDS011;6549;53.128;8.182;2023-03-23T18:36:17;6.93;;;3.13;;
12968;SDS011;6549;53.128;8.182;2023-03-23T18:39:19;7.18;;;2.90;;
12968;SDS011;6549;53.128;8.182;2023-03-23T18:42:20;7.03;;;2.75;;
12968;SDS011;6549;53.128;8.182;2023-03-23T18:45:21;9.88;;;2.90;;
12968;SDS011;6549;53.128;8.182;2023-03-23T18:48:22;7.55;;;3.20;;
12968;SDS011;6549;53.128;8.182;2023-03-23T18:51:22;5.97;;;2.63;;
12968;SDS011;6549;53.128;8.182;2023-03-23T18:54:25;6.68;;;3.10;;
12968;SDS011;6549;53.128;8.182;2023-03-23T18:57:26;7.68;;;2.88;;
12968;SDS011;6549;53.128;8.182;2023-03-23T19:00:26;7.47;;;2.78;;
12968;SDS011;6549;53.128;8.182;2023-03-23T19:03:28;9.35;;;3.00;;
12968;SDS011;6549;53.128;8.182;2023-03-23T19:06:29;6.95;;;2.50;;
12968;SDS011;6549;53.128;8.182;2023-03-23T19:09:31;7.70;;;3.60;;
12968;SDS011;6549;53.128;8.182;2023-03-23T19:12:33;8.18;;;3.20;;
12968;SDS011;6549;53.128;8.182;2023-03-23T19:15:40;5.57;;;3.42;;
12968;SDS011;6549;53.128;8.182;2023-03-23T19:18:41;8.55;;;3.30;;
12968;SDS011;6549;53.128;8.182;2023-03-23T19:21:41;8.13;;;3.13;;
12968;SDS011;6549;53.128;8.182;2023-03-23T19:24:42;6.03;;;2.88;;
12968;SDS011;6549;53.128;8.182;2023-03-23T19:27:43;7.25;;;2.97;;
12968;SDS011;6549;53.128;8.182;2023-03-23T19:30:47;7.28;;;3.10;;
12968;SDS011;6549;53.128;8.182;2023-03-23T19:33:52;7.47;;;3.10;;
12968;SDS011;6549;53.128;8.182;2023-03-23T19:36:53;6.53;;;3.15;;
12968;SDS011;6549;53.128;8.182;2023-03-23T19:39:53;9.13;;;3.10;;
12968;SDS011;6549;53.128;8.182;2023-03-23T19:42:54;5.95;;;3.05;;
12968;SDS011;6549;53.128;8.182;2023-03-23T19:45:54;6.60;;;3.40;;
12968;SDS011;6549;53.128;8.182;2023-03-23T19:48:54;8.35;;;3.78;;
12968;SDS011;6549;53.128;8.182;2023-03-23T19:51:55;7.50;;;3.47;;
12968;SDS011;6549;53.128;8.182;2023-03-23T19:54:55;7.68;;;3.20;;
12968;SDS011;6549;53.128;8.182;2023-03-23T19:57:56;9.20;;;3.90;;
12968;SDS011;6549;53.128;8.182;2023-03-23T20:00:58;8.13;;;5.05;;
12968;SDS011;6549;53.128;8.182;2023-03-23T20:03:59;6.68;;;3.90;;
12968;SDS011;6549;53.128;8.182;2023-03-23T20:07:03;7.82;;;3.60;;
12968;SDS011;6549;53.128;8.182;2023-03-23T20:10:04;7.88;;;4.10;;
12968;SDS011;6549;53.128;8.182;2023-03-23T20:13:06;8.82;;;4.40;;